createdAt,value
2023-06-17T00:02:10.746Z,5.17
2023-06-17T00:04:39.285Z,4.90
2023-06-17T00:07:08.054Z,4.90
2023-06-17T00:09:37.559Z,5.40
2023-06-17T00:12:06.224Z,5.23
2023-06-17T00:14:34.411Z,5.07
2023-06-17T00:17:03.333Z,5.03
2023-06-17T00:19:31.907Z,5.47
2023-06-17T00:22:00.656Z,5.63
2023-06-17T00:24:29.191Z,4.60
2023-06-17T00:26:59.022Z,5.90
2023-06-17T00:29:27.436Z,5.33
2023-06-17T00:31:56.131Z,5.40
2023-06-17T00:34:24.549Z,5.40
2023-06-17T00:36:52.961Z,5.27
2023-06-17T00:39:21.183Z,5.50
2023-06-17T00:41:49.601Z,5.20
2023-06-17T00:44:19.454Z,4.97
2023-06-17T00:46:49.210Z,5.20
2023-06-17T00:49:17.381Z,4.70
2023-06-17T00:51:49.057Z,4.63
2023-06-17T00:54:25.381Z,5.60
2023-06-17T00:56:54.330Z,5.60
2023-06-17T00:59:24.130Z,5.03
2023-06-17T01:01:52.588Z,5.33
2023-06-17T01:04:20.719Z,4.70
2023-06-17T01:06:51.813Z,5.00
2023-06-17T01:09:22.333Z,5.40
2023-06-17T01:11:50.865Z,5.10
2023-06-17T01:14:18.972Z,4.83
2023-06-17T01:16:52.136Z,5.23
2023-06-17T01:19:25.951Z,5.50
2023-06-17T01:21:54.893Z,4.80
2023-06-17T01:24:28.463Z,4.50
2023-06-17T01:26:58.420Z,4.63
2023-06-17T01:29:27.414Z,4.97
2023-06-17T01:31:57.858Z,5.40
2023-06-17T01:34:27.681Z,5.37
2023-06-17T01:36:56.153Z,4.40
2023-06-17T01:39:26.883Z,5.20
2023-06-17T01:41:55.555Z,5.00
2023-06-17T01:44:24.080Z,4.93
2023-06-17T01:46:52.504Z,5.13
2023-06-17T01:49:20.642Z,4.70
2023-06-17T01:51:49.069Z,4.70
2023-06-17T01:54:17.271Z,5.13
2023-06-17T01:56:47.417Z,4.93
2023-06-17T01:59:15.551Z,4.90
2023-06-17T02:01:43.962Z,5.50
2023-06-17T02:04:12.373Z,5.50
2023-06-17T02:06:40.809Z,4.93
2023-06-17T02:09:09.958Z,5.30
2023-06-17T02:11:38.097Z,5.30
2023-06-17T02:14:07.792Z,5.37
2023-06-17T02:16:40.363Z,5.10
2023-06-17T02:19:13.510Z,5.50
2023-06-17T02:21:41.700Z,5.57
2023-06-17T02:24:10.143Z,5.60
2023-06-17T02:26:38.934Z,6.20
2023-06-17T02:29:08.450Z,5.70
2023-06-17T02:31:36.985Z,5.47
2023-06-17T02:34:05.944Z,5.90
2023-06-17T02:36:34.440Z,5.70
2023-06-17T02:39:02.522Z,5.20
2023-06-17T02:41:30.945Z,6.00
2023-06-17T02:43:59.041Z,5.37
2023-06-17T02:46:28.630Z,6.13
2023-06-17T02:48:57.071Z,6.13
2023-06-17T02:51:26.989Z,6.40
2023-06-17T02:53:55.621Z,6.13
2023-06-17T02:56:23.730Z,5.90
2023-06-17T02:58:51.844Z,7.33
2023-06-17T03:01:22.414Z,6.50
2023-06-17T03:03:56.275Z,6.13
2023-06-17T03:06:25.195Z,6.40
2023-06-17T03:08:53.886Z,6.20
2023-06-17T03:11:22.375Z,6.63
2023-06-17T03:13:50.784Z,6.80
2023-06-17T03:16:19.117Z,6.40
2023-06-17T03:18:48.379Z,6.70
2023-06-17T03:21:17.856Z,7.03
2023-06-17T03:23:46.915Z,6.93
2023-06-17T03:26:17.270Z,6.57
2023-06-17T03:28:45.823Z,6.17
2023-06-17T03:31:14.423Z,6.80
2023-06-17T03:33:42.687Z,6.30
2023-06-17T03:36:10.996Z,6.73
2023-06-17T03:38:40.603Z,6.57
2023-06-17T03:41:08.755Z,6.67
2023-06-17T03:43:37.188Z,6.50
2023-06-17T03:46:05.315Z,6.47
2023-06-17T03:48:33.449Z,6.50
2023-06-17T03:51:02.421Z,6.63
2023-06-17T03:53:31.155Z,6.57
2023-06-17T03:56:01.269Z,6.10
2023-06-17T03:58:29.809Z,6.90
2023-06-17T04:00:58.396Z,6.43
2023-06-17T04:03:27.868Z,6.40
2023-06-17T04:05:56.480Z,6.50
2023-06-17T04:08:24.886Z,6.87
2023-06-17T04:10:53.378Z,6.77
2023-06-17T04:13:23.071Z,6.70
2023-06-17T04:15:51.490Z,6.47
2023-06-17T04:18:19.943Z,6.17
2023-06-17T04:20:48.144Z,6.23
2023-06-17T04:23:16.597Z,6.00
2023-06-17T04:25:44.772Z,6.30
2023-06-17T04:28:14.275Z,6.53
2023-06-17T04:30:49.876Z,6.50
2023-06-17T04:33:18.051Z,6.20
2023-06-17T04:35:48.531Z,6.30
2023-06-17T04:38:17.180Z,6.83
2023-06-17T04:40:45.288Z,6.83
2023-06-17T04:43:18.236Z,6.63
2023-06-17T04:45:46.644Z,6.73
2023-06-17T04:48:16.596Z,6.10
2023-06-17T04:50:49.114Z,6.67
2023-06-17T04:53:17.521Z,6.70
2023-06-17T04:55:46.054Z,6.83
2023-06-17T04:58:14.455Z,6.70
2023-06-17T05:00:42.620Z,7.50
2023-06-17T05:03:10.897Z,6.83
2023-06-17T05:05:43.718Z,7.33
2023-06-17T05:08:11.842Z,7.77
2023-06-17T05:10:39.972Z,7.70
2023-06-17T05:13:08.387Z,8.43
2023-06-17T05:15:36.834Z,9.33
2023-06-17T05:18:06.695Z,8.73
2023-06-17T05:20:35.314Z,9.60
2023-06-17T05:23:04.801Z,8.90
2023-06-17T05:25:33.229Z,8.77
2023-06-17T05:28:01.791Z,8.67
2023-06-17T05:30:29.897Z,9.23
2023-06-17T05:32:58.461Z,8.87
2023-06-17T05:35:28.625Z,8.97
2023-06-17T05:37:56.769Z,8.23
2023-06-17T05:40:26.317Z,8.47
2023-06-17T05:42:54.745Z,8.70
2023-06-17T05:45:23.190Z,7.67
2023-06-17T05:47:54.348Z,7.90
2023-06-17T05:50:24.352Z,8.53
2023-06-17T05:52:53.028Z,7.60
2023-06-17T05:55:21.174Z,7.10
2023-06-17T05:57:53.006Z,8.10
2023-06-17T06:00:29.997Z,8.47
2023-06-17T06:02:58.547Z,7.43
2023-06-17T06:05:26.676Z,7.87
2023-06-17T06:07:55.102Z,7.47
2023-06-17T06:10:23.917Z,7.60
2023-06-17T06:12:53.575Z,7.80
2023-06-17T06:15:24.732Z,7.70
2023-06-17T06:17:53.234Z,7.30
2023-06-17T06:20:21.540Z,7.40
2023-06-17T06:22:50.084Z,7.00
2023-06-17T06:25:18.271Z,7.00
2023-06-17T06:27:46.977Z,6.87
2023-06-17T06:30:17.474Z,7.40
2023-06-17T06:32:45.607Z,7.20
2023-06-17T06:35:13.778Z,7.23
2023-06-17T06:37:42.216Z,7.53
2023-06-17T06:40:11.197Z,7.53
2023-06-17T06:42:39.627Z,6.93
2023-06-17T06:45:08.767Z,6.90
2023-06-17T06:47:38.592Z,7.53
2023-06-17T06:50:07.681Z,7.90
2023-06-17T06:52:36.161Z,7.60
2023-06-17T06:55:04.637Z,7.53
2023-06-17T06:57:32.729Z,7.70
2023-06-17T07:00:01.233Z,7.63
2023-06-17T07:02:29.415Z,7.90
2023-06-17T07:04:59.265Z,7.50
2023-06-17T07:07:27.685Z,6.73
2023-06-17T07:09:56.092Z,7.40
2023-06-17T07:12:24.501Z,6.93
2023-06-17T07:14:52.918Z,6.90
2023-06-17T07:17:21.056Z,8.20
2023-06-17T07:19:49.388Z,7.10
2023-06-17T07:22:18.957Z,7.20
2023-06-17T07:24:47.370Z,7.90
2023-06-17T07:27:16.541Z,8.20
2023-06-17T07:29:44.947Z,7.87
2023-06-17T07:32:13.464Z,7.70
2023-06-17T07:34:41.592Z,8.20
2023-06-17T07:37:10.042Z,8.30
2023-06-17T07:39:39.842Z,8.00
2023-06-17T07:42:08.344Z,7.60
2023-06-17T07:44:36.479Z,7.80
2023-06-17T07:47:05.112Z,7.67
2023-06-17T07:49:34.491Z,7.57
2023-06-17T07:52:02.892Z,6.73
2023-06-17T07:54:31.990Z,6.43
2023-06-17T07:57:03.794Z,6.87
2023-06-17T07:59:36.072Z,6.10
2023-06-17T08:02:05.503Z,7.00
2023-06-17T08:04:34.701Z,7.70
2023-06-17T08:07:03.315Z,7.50
2023-06-17T08:09:31.738Z,7.43
2023-06-17T08:12:01.202Z,6.13
2023-06-17T08:14:29.390Z,6.40
2023-06-17T08:16:58.257Z,5.83
2023-06-17T08:19:26.467Z,6.77
2023-06-17T08:21:54.622Z,5.90
2023-06-17T08:24:23.520Z,5.73
2023-06-17T08:26:52.171Z,6.10
2023-06-17T08:29:21.717Z,5.80
2023-06-17T08:31:50.373Z,5.43
2023-06-17T08:34:18.564Z,4.87
2023-06-17T08:36:47.852Z,5.40
2023-06-17T08:39:53.511Z,5.23
2023-06-17T08:42:21.670Z,4.90
2023-06-17T08:44:51.150Z,4.60
2023-06-17T08:47:24.118Z,4.63
2023-06-17T08:49:52.235Z,5.50
2023-06-17T08:52:20.325Z,5.00
2023-06-17T08:54:48.474Z,4.83
2023-06-17T08:57:18.844Z,4.47
2023-06-17T08:59:47.680Z,5.40
2023-06-17T09:02:19.508Z,4.77
2023-06-17T09:04:47.648Z,4.80
2023-06-17T09:07:15.782Z,4.90
2023-06-17T09:09:48.322Z,4.80
2023-06-17T09:12:16.458Z,4.50
2023-06-17T09:14:45.997Z,4.93
2023-06-17T09:17:28.391Z,5.27
2023-06-17T09:19:56.497Z,4.77
2023-06-17T09:22:30.193Z,4.47
2023-06-17T09:25:00.862Z,4.93
2023-06-17T09:27:29.027Z,5.10
2023-06-17T09:30:11.493Z,4.97
2023-06-17T09:32:41.899Z,5.20
2023-06-17T09:35:15.700Z,4.37
2023-06-17T09:38:02.720Z,4.90
2023-06-17T09:40:33.847Z,5.43
2023-06-17T09:43:25.936Z,4.60
2023-06-17T09:45:58.299Z,5.10
2023-06-17T09:48:31.653Z,5.63
2023-06-17T09:51:00.250Z,5.20
2023-06-17T09:53:30.597Z,4.90
2023-06-17T09:56:01.227Z,4.90
2023-06-17T09:58:32.128Z,5.00
2023-06-17T10:01:01.792Z,5.53
2023-06-17T10:03:32.194Z,5.33
2023-06-17T10:06:03.511Z,4.77
2023-06-17T10:08:31.949Z,4.97
2023-06-17T10:11:00.828Z,5.27
2023-06-17T10:13:29.490Z,4.80
2023-06-17T10:15:57.885Z,5.13
2023-06-17T10:18:26.622Z,4.97
2023-06-17T10:20:58.793Z,4.80
2023-06-17T10:23:27.116Z,5.33
2023-06-17T10:25:55.883Z,4.97
2023-06-17T10:28:24.037Z,4.83
2023-06-17T10:30:54.241Z,5.27
2023-06-17T10:33:28.188Z,5.17
2023-06-17T10:36:07.938Z,5.13
2023-06-17T10:38:36.432Z,5.03
2023-06-17T10:41:04.860Z,4.70
2023-06-17T10:43:38.303Z,5.10
2023-06-17T10:46:06.970Z,4.53
2023-06-17T10:48:35.888Z,4.80
2023-06-17T10:51:11.205Z,5.30
2023-06-17T10:53:42.065Z,5.10
2023-06-17T10:56:11.551Z,4.83
2023-06-17T10:58:45.977Z,5.27
2023-06-17T11:01:14.144Z,5.00
2023-06-17T11:03:42.639Z,5.17
2023-06-17T11:06:12.243Z,4.17
2023-06-17T11:08:40.631Z,5.20
2023-06-17T11:11:12.968Z,4.20
2023-06-17T11:13:41.602Z,4.70
2023-06-17T11:16:12.456Z,4.90
2023-06-17T11:18:43.463Z,4.43
2023-06-17T11:21:13.051Z,4.73
2023-06-17T11:23:42.725Z,4.83
2023-06-17T11:26:11.121Z,4.60
2023-06-17T11:28:42.649Z,4.33
2023-06-17T11:31:10.849Z,4.70
2023-06-17T11:33:40.430Z,5.47
2023-06-17T11:36:14.184Z,4.87
2023-06-17T11:38:44.118Z,4.67
2023-06-17T11:41:13.721Z,4.70
2023-06-17T11:43:41.822Z,4.20
2023-06-17T11:46:10.363Z,4.40
2023-06-17T11:48:38.496Z,4.33
2023-06-17T11:51:06.918Z,4.53
2023-06-17T11:53:37.385Z,4.70
2023-06-17T11:56:08.181Z,4.27
2023-06-17T11:58:42.974Z,4.80
2023-06-17T12:01:11.810Z,4.50
2023-06-17T12:03:40.366Z,4.10
2023-06-17T12:06:08.867Z,4.57
2023-06-17T12:08:37.401Z,4.40
2023-06-17T12:11:10.685Z,4.00
2023-06-17T12:13:40.310Z,4.07
2023-06-17T12:16:11.609Z,4.20
2023-06-17T12:18:39.706Z,4.90
2023-06-17T12:21:12.071Z,4.90
2023-06-17T12:23:40.530Z,4.60
2023-06-17T12:26:10.650Z,4.37
2023-06-17T12:28:42.873Z,4.27
2023-06-17T12:31:11.276Z,4.10
2023-06-17T12:33:39.784Z,4.50
2023-06-17T12:36:08.091Z,3.93
2023-06-17T12:38:36.533Z,4.30
2023-06-17T12:41:04.945Z,4.40
2023-06-17T12:43:35.922Z,4.33
2023-06-17T12:46:05.633Z,4.60
2023-06-17T12:48:35.549Z,4.30
2023-06-17T12:51:04.621Z,4.70
2023-06-17T12:53:33.028Z,3.97
2023-06-17T12:56:01.329Z,4.37
2023-06-17T12:58:29.897Z,4.33
2023-06-17T13:00:59.493Z,4.77
2023-06-17T13:03:27.963Z,4.43
2023-06-17T13:05:56.072Z,3.93
2023-06-17T13:08:24.834Z,4.20
2023-06-17T13:10:53.315Z,3.60
2023-06-17T13:13:21.507Z,4.60
2023-06-17T13:15:52.046Z,4.60
2023-06-17T13:18:25.865Z,4.40
2023-06-17T13:20:54.396Z,4.37
2023-06-17T13:23:22.576Z,4.27
2023-06-17T13:25:51.106Z,4.47
2023-06-17T13:28:20.771Z,3.87
2023-06-17T13:30:50.636Z,4.77
2023-06-17T13:33:26.820Z,4.83
2023-06-17T13:35:55.264Z,4.50
2023-06-17T13:38:24.392Z,3.87
2023-06-17T13:40:53.499Z,4.37
2023-06-17T13:43:21.928Z,4.30
2023-06-17T13:45:54.480Z,4.83
2023-06-17T13:48:22.708Z,4.40
2023-06-17T13:50:52.236Z,4.47
2023-06-17T13:53:20.360Z,4.43
2023-06-17T13:55:49.791Z,4.00
2023-06-17T13:58:18.175Z,4.00
2023-06-17T14:00:46.305Z,3.80
2023-06-17T14:03:16.980Z,3.90
2023-06-17T14:05:46.674Z,4.30
2023-06-17T14:08:16.559Z,3.90
2023-06-17T14:10:45.022Z,4.20
2023-06-17T14:13:13.766Z,3.40
2023-06-17T14:15:41.885Z,4.20
2023-06-17T14:18:10.179Z,4.00
2023-06-17T14:20:38.714Z,4.10
2023-06-17T14:23:08.913Z,3.63
2023-06-17T14:25:38.397Z,4.10
2023-06-17T14:28:06.706Z,3.57
2023-06-17T14:30:34.831Z,3.97
2023-06-17T14:33:03.549Z,4.43
2023-06-17T14:35:31.700Z,4.13
2023-06-17T14:38:00.171Z,4.10
2023-06-17T14:40:28.427Z,3.97
2023-06-17T14:42:58.257Z,4.43
2023-06-17T14:45:30.916Z,4.20
2023-06-17T14:47:59.169Z,4.43
2023-06-17T14:50:27.712Z,4.40
2023-06-17T14:52:55.804Z,4.13
2023-06-17T14:55:23.920Z,4.40
2023-06-17T14:57:52.311Z,4.00
2023-06-17T15:00:22.258Z,3.53
2023-06-17T15:02:56.114Z,4.27
2023-06-17T15:05:24.533Z,4.10
2023-06-17T15:07:53.165Z,3.70
2023-06-17T15:10:21.448Z,3.83
2023-06-17T15:12:50.100Z,3.77
2023-06-17T15:15:19.151Z,3.77
2023-06-17T15:17:49.120Z,3.93
2023-06-17T15:20:19.249Z,4.03
2023-06-17T15:22:49.181Z,4.37
2023-06-17T15:25:17.377Z,4.40
2023-06-17T15:27:45.772Z,4.50
2023-06-17T15:30:14.448Z,4.47
2023-06-17T15:32:42.947Z,3.90
2023-06-17T15:35:13.808Z,3.80
2023-06-17T15:37:41.911Z,4.60
2023-06-17T15:40:11.158Z,4.03
2023-06-17T15:42:39.570Z,3.83
2023-06-17T15:45:08.466Z,3.70
2023-06-17T15:47:37.006Z,4.27
2023-06-17T15:50:05.702Z,4.70
2023-06-17T15:52:35.233Z,4.17
2023-06-17T15:55:03.668Z,4.00
2023-06-17T15:57:32.273Z,4.20
2023-06-17T16:00:00.844Z,4.00
2023-06-17T16:02:29.822Z,3.93
2023-06-17T16:04:58.260Z,3.90
2023-06-17T16:07:26.691Z,3.90
2023-06-17T16:09:56.462Z,4.80
2023-06-17T16:12:25.168Z,4.00
2023-06-17T16:14:53.586Z,3.77
2023-06-17T16:17:21.698Z,4.33
2023-06-17T16:19:54.864Z,4.17
2023-06-17T16:22:22.984Z,4.53
2023-06-17T16:24:51.402Z,4.70
2023-06-17T16:27:20.888Z,4.23
2023-06-17T16:29:49.206Z,4.10
2023-06-17T16:32:17.639Z,4.53
2023-06-17T16:34:46.064Z,4.27
2023-06-17T16:37:14.153Z,4.10
2023-06-17T16:39:42.599Z,4.93
2023-06-17T16:42:10.755Z,4.03
2023-06-17T16:44:40.577Z,4.07
2023-06-17T16:47:08.697Z,3.87
2023-06-17T16:49:37.104Z,4.20
2023-06-17T16:52:05.651Z,4.43
2023-06-17T16:54:33.763Z,4.67
2023-06-17T16:57:01.916Z,3.60
2023-06-17T16:59:31.200Z,4.30
2023-06-17T17:02:01.219Z,4.57
2023-06-17T17:04:29.369Z,4.00
2023-06-17T17:06:57.829Z,4.10
2023-06-17T17:09:26.574Z,4.10
2023-06-17T17:11:54.693Z,4.40
2023-06-17T17:14:23.233Z,4.30
2023-06-17T17:16:51.599Z,4.30
2023-06-17T17:19:21.477Z,4.67
2023-06-17T17:21:50.032Z,4.13
2023-06-17T17:24:18.577Z,4.13
2023-06-17T17:26:48.897Z,4.67
2023-06-17T17:29:16.979Z,4.73
2023-06-17T17:31:45.111Z,4.00
2023-06-17T17:34:13.532Z,4.20
2023-06-17T17:36:43.052Z,4.20
2023-06-17T17:39:11.493Z,4.30
2023-06-17T17:41:39.589Z,4.23
2023-06-17T17:44:08.027Z,4.07
2023-06-17T17:46:36.798Z,4.77
2023-06-17T17:49:05.301Z,4.10
2023-06-17T17:51:33.404Z,4.70
2023-06-17T17:54:03.241Z,4.30
2023-06-17T17:56:31.737Z,4.50
2023-06-17T17:59:00.222Z,4.13
2023-06-17T18:01:28.643Z,4.03
2023-06-17T18:03:56.848Z,4.20
2023-06-17T18:06:25.646Z,4.20
2023-06-17T18:08:54.114Z,4.13
2023-06-17T18:11:26.259Z,3.90
2023-06-17T18:13:54.887Z,4.60
2023-06-17T18:16:24.065Z,4.50
2023-06-17T18:18:52.728Z,4.30
2023-06-17T18:21:21.137Z,4.30
2023-06-17T18:23:49.301Z,4.10
2023-06-17T18:26:17.870Z,4.00
2023-06-17T18:28:47.558Z,4.50
2023-06-17T18:31:16.016Z,4.53
2023-06-17T18:33:44.788Z,4.30
2023-06-17T18:36:12.932Z,4.40
2023-06-17T18:38:41.331Z,4.77
2023-06-17T18:41:09.773Z,4.30
2023-06-17T18:43:37.901Z,4.40
2023-06-17T18:46:07.787Z,3.80
2023-06-17T18:48:36.443Z,4.03
2023-06-17T18:51:04.860Z,4.37
2023-06-17T18:53:33.264Z,4.10
2023-06-17T18:56:01.684Z,4.10
2023-06-17T18:58:30.205Z,4.33
2023-06-17T19:00:58.660Z,4.83
2023-06-17T19:03:29.296Z,4.40
2023-06-17T19:05:57.735Z,4.40
2023-06-17T19:08:26.202Z,3.63
2023-06-17T19:10:54.620Z,4.40
2023-06-17T19:13:22.756Z,3.93
2023-06-17T19:15:50.886Z,4.37
2023-06-17T19:18:19.311Z,4.03
2023-06-17T19:20:49.086Z,4.03
2023-06-17T19:23:17.506Z,4.07
2023-06-17T19:25:45.696Z,4.30
2023-06-17T19:28:18.685Z,4.40
2023-06-17T19:30:48.259Z,4.60
2023-06-17T19:33:16.383Z,4.60
2023-06-17T19:35:44.844Z,4.43
2023-06-17T19:38:14.634Z,4.60
2023-06-17T19:40:42.776Z,4.00
2023-06-17T19:43:12.207Z,4.53
2023-06-17T19:45:45.032Z,4.10
2023-06-17T19:48:13.612Z,5.17
2023-06-17T19:50:42.029Z,5.10
2023-06-17T19:53:10.144Z,4.93
2023-06-17T19:55:42.350Z,5.53
2023-06-17T19:58:10.510Z,6.00
2023-06-17T20:00:39.140Z,5.40
2023-06-17T20:03:18.795Z,5.43
2023-06-17T20:05:47.193Z,5.43
2023-06-17T20:08:15.298Z,6.10
2023-06-17T20:10:45.085Z,5.80
2023-06-17T20:13:14.147Z,6.13
2023-06-17T20:15:42.500Z,6.30
2023-06-17T20:18:11.258Z,6.43
2023-06-17T20:20:39.829Z,6.43
2023-06-17T20:23:08.040Z,6.20
2023-06-17T20:25:36.160Z,6.40
2023-06-17T20:28:05.878Z,6.00
2023-06-17T20:30:33.973Z,6.40
2023-06-17T20:33:02.450Z,6.73
2023-06-17T20:35:30.864Z,6.40
2023-06-17T20:37:58.985Z,6.27
2023-06-17T20:40:28.010Z,6.97
2023-06-17T20:42:56.143Z,6.30
2023-06-17T20:45:25.628Z,6.30
2023-06-17T20:47:53.783Z,7.23
2023-06-17T20:50:22.516Z,6.80
2023-06-17T20:52:51.172Z,7.20
2023-06-17T20:55:19.273Z,6.70
2023-06-17T20:57:47.805Z,6.63
2023-06-17T21:00:16.084Z,7.63
2023-06-17T21:02:45.668Z,6.70
2023-06-17T21:05:14.231Z,7.20
2023-06-17T21:07:42.944Z,7.53
2023-06-17T21:10:12.743Z,7.77
2023-06-17T21:12:41.002Z,7.77
2023-06-17T21:15:10.192Z,7.53
2023-06-17T21:17:39.002Z,6.40
2023-06-17T21:20:10.305Z,7.20
2023-06-17T21:22:38.626Z,7.00
2023-06-17T21:25:07.494Z,7.70
2023-06-17T21:27:35.636Z,7.10
2023-06-17T21:30:03.756Z,7.30
2023-06-17T21:32:32.246Z,6.40
2023-06-17T21:35:00.712Z,7.53
2023-06-17T21:37:30.485Z,7.00
2023-06-17T21:39:58.666Z,6.50
2023-06-17T21:42:26.916Z,7.03
2023-06-17T21:44:55.349Z,8.13
2023-06-17T21:47:23.846Z,7.50
2023-06-17T21:49:52.365Z,7.27
2023-06-17T21:52:25.113Z,7.53
2023-06-17T21:54:54.906Z,8.70
2023-06-17T21:57:27.380Z,7.60
2023-06-17T21:59:55.898Z,7.90
2023-06-17T22:02:24.447Z,8.90
2023-06-17T22:04:53.550Z,8.13
2023-06-17T22:07:22.030Z,8.40
2023-06-17T22:09:50.640Z,8.63
2023-06-17T22:12:20.178Z,8.07
2023-06-17T22:14:48.625Z,8.30
2023-06-17T22:17:16.815Z,8.53
2023-06-17T22:19:45.514Z,7.30
2023-06-17T22:22:13.643Z,8.40
2023-06-17T22:24:42.148Z,8.37
2023-06-17T22:27:12.773Z,8.53
2023-06-17T22:29:42.307Z,8.70
2023-06-17T22:32:10.782Z,8.60
2023-06-17T22:34:39.186Z,9.00
2023-06-17T22:37:07.877Z,9.07
2023-06-17T22:39:35.973Z,8.80
2023-06-17T22:42:04.154Z,8.20
2023-06-17T22:44:32.573Z,8.73
2023-06-17T22:47:02.070Z,9.10
2023-06-17T22:49:32.405Z,8.50
2023-06-17T22:52:00.539Z,8.60
2023-06-17T22:54:28.991Z,8.50
2023-06-17T22:56:57.402Z,10.07
2023-06-17T22:59:25.561Z,9.73
2023-06-17T23:01:53.985Z,10.10
2023-06-17T23:04:23.824Z,9.90
2023-06-17T23:06:52.299Z,11.30
2023-06-17T23:09:20.752Z,11.60
2023-06-17T23:11:48.812Z,10.90
2023-06-17T23:14:16.928Z,10.77
2023-06-17T23:16:45.406Z,10.73
2023-06-17T23:19:13.888Z,11.20
2023-06-17T23:21:45.382Z,11.17
2023-06-17T23:24:15.460Z,10.43
2023-06-17T23:26:43.980Z,11.30
2023-06-17T23:29:12.432Z,10.57
2023-06-17T23:31:40.661Z,11.23
2023-06-17T23:34:09.235Z,10.77
2023-06-17T23:36:40.675Z,10.40
2023-06-17T23:39:10.498Z,10.47
2023-06-17T23:41:48.905Z,9.83
2023-06-17T23:44:17.320Z,11.07
2023-06-17T23:46:45.791Z,10.40
2023-06-17T23:49:16.658Z,10.33
2023-06-17T23:51:45.150Z,11.83
2023-06-17T23:54:14.708Z,10.17
2023-06-17T23:56:43.335Z,10.93
2023-06-17T23:59:11.460Z,10.10
